Time;durP1;ratioP1;P1;durP2;ratioP2;P2;SDS_P1;SDS_P2;PMS_P1;PMS_P2;Temp;Humidity;BMP_temperature;BMP_pressure;BME280_temperature;BME280_humidity;BME280_pressure;Samples;Min_cycle;Max_cycle;Signal;HPM_P1;HPM_P2
2022/12/18 00:01:23;;;;;;;71.93;31.10;;;;;;;;;;4994028;28;20432;-58
2022/12/18 00:03:49;;;;;;;59.53;31.80;;;;;;;;;;4976384;28;20048;-56
2022/12/18 00:06:15;;;;;;;63.95;27.58;;;;;;;;;;4978279;28;20832;-57
2022/12/18 00:08:41;;;;;;;64.93;27.73;;;;;;;;;;4992645;28;20464;-56
2022/12/18 00:11:07;;;;;;;83.35;29.13;;;;;;;;;;4992690;28;20145;-58
2022/12/18 00:13:33;;;;;;;57.43;25.13;;;;;;;;;;4994687;28;20084;-55
2022/12/18 00:16:02;;;;;;;58.97;24.35;;;;;;;;;;4983435;28;20029;-57
2022/12/18 00:18:28;;;;;;;63.10;25.75;;;;;;;;;;4997078;28;20528;-56
2022/12/18 00:20:53;;;;;;;60.53;27.50;;;;;;;;;;4981284;28;20026;-57
2022/12/18 00:23:18;;;;;;;62.00;25.52;;;;;;;;;;5000119;28;20051;-57
2022/12/18 00:25:43;;;;;;;64.72;27.95;;;;;;;;;;4998691;28;20080;-54
2022/12/18 00:28:09;;;;;;;57.05;25.35;;;;;;;;;;4987580;28;20034;-57
2022/12/18 00:30:34;;;;;;;63.65;22.58;;;;;;;;;;4996524;28;20030;-55
2022/12/18 00:32:59;;;;;;;52.63;23.20;;;;;;;;;;4995395;28;20791;-55
2022/12/18 00:35:25;;;;;;;63.63;20.13;;;;;;;;;;4995147;28;20093;-56
2022/12/18 00:37:51;;;;;;;46.47;21.10;;;;;;;;;;4996127;28;20036;-55
2022/12/18 00:40:16;;;;;;;54.00;21.02;;;;;;;;;;4994741;28;20030;-58
2022/12/18 00:42:57;;;;;;;50.83;24.90;;;;;;;;;;4984358;28;20030;-57
2022/12/18 00:45:27;;;;;;;74.35;30.20;;;;;;;;;;4978788;28;20449;-56
2022/12/18 00:47:53;;;;;;;54.40;23.77;;;;;;;;;;4996202;28;20117;-56
2022/12/18 00:50:18;;;;;;;48.08;22.23;;;;;;;;;;4997842;28;20117;-57
2022/12/18 00:52:44;;;;;;;52.42;22.42;;;;;;;;;;4996723;28;20034;-58
2022/12/18 00:55:09;;;;;;;50.08;23.45;;;;;;;;;;4979952;28;20668;-56
2022/12/18 00:57:35;;;;;;;72.85;29.23;;;;;;;;;;4977926;28;20501;-57
2022/12/18 01:00:00;;;;;;;69.50;28.88;;;;;;;;;;4994035;28;20041;-56
2022/12/18 01:02:26;;;;;;;74.82;29.85;;;;;;;;;;4978806;28;20026;-57
2022/12/18 01:04:51;;;;;;;55.20;26.67;;;;;;;;;;4982064;28;20532;-58
2022/12/18 01:07:18;;;;;;;;;;;;;;;;;;4995887;28;20472;-57
2022/12/18 01:09:43;;;;;;;51.47;19.77;;;;;;;;;;4986728;28;19958;-56
2022/12/18 01:12:09;;;;;;;55.50;24.15;;;;;;;;;;4980058;28;20021;-55
2022/12/18 01:14:34;;;;;;;69.47;24.45;;;;;;;;;;4985954;28;20079;-57
2022/12/18 01:17:02;;;;;;;49.25;21.83;;;;;;;;;;4995537;28;20034;-57
2022/12/18 01:19:27;;;;;;;54.33;25.63;;;;;;;;;;4996713;28;20045;-54
2022/12/18 01:21:53;;;;;;;47.85;23.60;;;;;;;;;;4981742;28;20046;-58
2022/12/18 01:24:19;;;;;;;53.55;22.95;;;;;;;;;;4995343;28;20080;-55
2022/12/18 01:26:45;;;;;;;49.33;22.95;;;;;;;;;;4994483;28;20034;-53
2022/12/18 01:29:10;;;;;;;60.35;26.17;;;;;;;;;;4996543;28;20453;-56
2022/12/18 01:31:35;;;;;;;57.40;22.98;;;;;;;;;;4984424;28;20043;-56
2022/12/18 01:34:01;;;;;;;55.05;24.17;;;;;;;;;;4996702;28;20041;-55
2022/12/18 01:36:28;;;;;;;57.45;25.77;;;;;;;;;;4996626;28;20022;-56
2022/12/18 01:38:54;;;;;;;60.47;25.50;;;;;;;;;;4985820;28;20041;-55
2022/12/18 01:41:21;;;;;;;57.47;24.42;;;;;;;;;;4994771;28;20030;-54
2022/12/18 01:43:50;;;;;;;45.60;22.17;;;;;;;;;;4994830;28;20042;-57
2022/12/18 01:46:16;;;;;;;48.28;21.08;;;;;;;;;;4982176;28;20053;-55
2022/12/18 01:48:42;;;;;;;43.47;21.53;;;;;;;;;;4981909;28;20392;-55
2022/12/18 01:51:09;;;;;;;51.85;20.13;;;;;;;;;;4993611;28;20038;-54
2022/12/18 01:53:34;;;;;;;59.53;22.10;;;;;;;;;;4996412;28;20048;-56
2022/12/18 01:56:00;;;;;;;45.13;20.13;;;;;;;;;;4992812;28;20034;-55
2022/12/18 01:58:30;;;;;;;38.97;17.98;;;;;;;;;;4994052;28;20768;-54
2022/12/18 02:00:55;;;;;;;52.85;21.70;;;;;;;;;;4986338;28;20049;-55
2022/12/18 02:03:21;;;;;;;45.83;20.30;;;;;;;;;;4995520;28;20030;-57
2022/12/18 02:06:09;;;;;;;60.92;23.13;;;;;;;;;;4993803;28;20917;-54
2022/12/18 02:08:55;;;;;;;43.85;21.98;;;;;;;;;;4974718;28;20052;-56
2022/12/18 02:11:31;;;;;;;60.90;23.88;;;;;;;;;;4986458;28;20041;-58
2022/12/18 02:14:06;;;;;;;61.53;23.45;;;;;;;;;;4965020;28;20147;-56
2022/12/18 02:16:37;;;;;;;50.25;22.85;;;;;;;;;;4993779;28;20045;-56
2022/12/18 02:19:10;;;;;;;48.08;20.95;;;;;;;;;;4978437;28;20496;-56
2022/12/18 02:21:54;;;;;;;44.65;23.30;;;;;;;;;;4993934;28;20045;-55
2022/12/18 02:24:32;;;;;;;37.00;18.17;;;;;;;;;;4978406;28;20042;-58
2022/12/18 02:26:59;;;;;;;37.95;18.88;;;;;;;;;;4981154;28;20026;-53
2022/12/18 02:29:32;;;;;;;45.33;18.58;;;;;;;;;;4984256;28;20022;-52
2022/12/18 02:32:01;;;;;;;44.42;21.55;;;;;;;;;;4990301;28;20041;-57
2022/12/18 02:34:29;;;;;;;48.65;23.10;;;;;;;;;;4994633;28;20041;-56
2022/12/18 02:36:55;;;;;;;49.33;21.73;;;;;;;;;;4992532;28;20125;-52
2022/12/18 02:39:21;;;;;;;58.95;26.00;;;;;;;;;;4979087;28;20034;-52
2022/12/18 02:41:57;;;;;;;48.40;23.30;;;;;;;;;;4978834;28;20045;-53
2022/12/18 02:44:23;;;;;;;;;;;;;;;;;;4979695;28;20046;-53
2022/12/18 02:46:49;;;;;;;25.67;14.87;;;;;;;;;;4982870;28;19909;-53
2022/12/18 02:49:27;;;;;;;44.92;18.05;;;;;;;;;;4992915;28;20026;-53
2022/12/18 02:52:14;;;;;;;53.80;23.67;;;;;;;;;;4978990;28;20038;-55
2022/12/18 02:54:40;;;;;;;41.95;19.75;;;;;;;;;;4967485;28;20150;-53
2022/12/18 02:57:14;;;;;;;62.95;25.70;;;;;;;;;;4980369;28;20045;-53
2022/12/18 02:59:45;;;;;;;60.65;25.15;;;;;;;;;;4991887;28;20095;-56
2022/12/18 03:02:19;;;;;;;57.58;27.42;;;;;;;;;;4993366;28;20049;-53
2022/12/18 03:04:50;;;;;;;56.97;25.85;;;;;;;;;;4993430;28;20042;-56
2022/12/18 03:07:20;;;;;;;53.95;25.77;;;;;;;;;;4992865;28;20034;-56
2022/12/18 03:09:49;;;;;;;50.65;22.95;;;;;;;;;;4993972;28;20034;-55
2022/12/18 03:12:23;;;;;;;45.47;22.48;;;;;;;;;;4988847;28;20080;-56
2022/12/18 03:14:56;;;;;;;43.13;21.65;;;;;;;;;;4975106;28;20045;-54
2022/12/18 03:17:22;;;;;;;45.38;19.85;;;;;;;;;;4993509;28;20046;-56
2022/12/18 03:19:49;;;;;;;55.75;21.40;;;;;;;;;;4967974;28;20481;-56
2022/12/18 03:22:15;;;;;;;40.28;18.08;;;;;;;;;;4990909;28;20117;-56
2022/12/18 03:24:48;;;;;;;39.05;19.50;;;;;;;;;;4978705;28;20515;-57
2022/12/18 03:27:17;;;;;;;42.00;19.17;;;;;;;;;;4979036;28;20030;-54
2022/12/18 03:29:47;;;;;;;44.55;21.08;;;;;;;;;;4992320;28;20564;-56
2022/12/18 03:32:16;;;;;;;54.22;22.63;;;;;;;;;;4983492;28;20061;-57
2022/12/18 03:34:43;;;;;;;51.17;22.55;;;;;;;;;;4991258;28;20140;-54
2022/12/18 03:37:11;;;;;;;47.00;20.63;;;;;;;;;;4991450;28;20041;-55
2022/12/18 03:39:37;;;;;;;54.50;22.88;;;;;;;;;;4994755;28;20023;-54
2022/12/18 03:42:21;;;;;;;67.43;25.03;;;;;;;;;;4989530;28;20038;-55
2022/12/18 03:44:56;;;;;;;62.97;24.35;;;;;;;;;;4968481;28;20038;-56
2022/12/18 03:47:39;;;;;;;56.03;25.40;;;;;;;;;;4990357;28;20129;-57
2022/12/18 03:50:06;;;;;;;52.90;22.55;;;;;;;;;;4991849;28;20030;-54
2022/12/18 03:52:38;;;;;;;50.63;25.35;;;;;;;;;;4984912;28;20605;-58
2022/12/18 03:55:05;;;;;;;53.78;24.98;;;;;;;;;;4984684;28;20524;-57
2022/12/18 03:57:31;;;;;;;63.15;25.63;;;;;;;;;;4995672;28;20032;-56
2022/12/18 04:00:00;;;;;;;56.75;24.80;;;;;;;;;;4994449;28;20038;-58
2022/12/18 04:02:29;;;;;;;54.83;26.55;;;;;;;;;;4997128;28;20106;-57
2022/12/18 04:04:59;;;;;;;67.18;26.95;;;;;;;;;;4995042;28;20037;-56
2022/12/18 04:07:25;;;;;;;46.47;23.80;;;;;;;;;;4964863;28;20120;-57
2022/12/18 04:09:53;;;;;;;45.83;25.45;;;;;;;;;;4984555;28;20070;-58
2022/12/18 04:12:26;;;;;;;57.70;20.45;;;;;;;;;;4996596;28;20117;-56
2022/12/18 04:14:51;;;;;;;60.10;24.33;;;;;;;;;;4980440;28;20088;-56
2022/12/18 04:17:17;;;;;;;65.00;28.38;;;;;;;;;;4995518;28;20034;-57
2022/12/18 04:19:42;;;;;;;49.05;22.60;;;;;;;;;;4982609;28;20464;-55
2022/12/18 04:22:10;;;;;;;48.13;23.23;;;;;;;;;;4986443;28;20026;-50
2022/12/18 04:24:40;;;;;;;45.10;19.77;;;;;;;;;;4993619;28;20492;-57
2022/12/18 04:27:13;;;;;;;50.40;23.75;;;;;;;;;;4981046;28;20030;-58
2022/12/18 04:29:43;;;;;;;48.92;23.23;;;;;;;;;;4994077;28;20034;-57
2022/12/18 04:32:09;;;;;;;48.65;22.15;;;;;;;;;;4995563;28;20026;-50
2022/12/18 04:34:35;;;;;;;56.13;23.65;;;;;;;;;;4993237;28;20054;-53
2022/12/18 04:37:01;;;;;;;56.03;20.60;;;;;;;;;;4988884;28;20053;-55
2022/12/18 04:39:26;;;;;;;54.42;21.48;;;;;;;;;;4980874;28;20050;-57
2022/12/18 04:41:59;;;;;;;38.30;18.92;;;;;;;;;;4980164;28;20076;-55
2022/12/18 04:44:25;;;;;;;40.40;19.88;;;;;;;;;;4994880;28;20036;-53
2022/12/18 04:46:50;;;;;;;56.42;22.15;;;;;;;;;;4996459;28;20026;-55
2022/12/18 04:49:15;;;;;;;57.80;21.60;;;;;;;;;;4978894;28;20026;-55
2022/12/18 04:51:40;;;;;;;41.47;23.00;;;;;;;;;;4996775;28;20056;-54
2022/12/18 04:54:06;;;;;;;39.42;20.70;;;;;;;;;;4986859;28;20125;-52
2022/12/18 04:56:31;;;;;;;51.75;23.27;;;;;;;;;;4978195;28;20034;-54
2022/12/18 04:58:57;;;;;;;47.80;23.23;;;;;;;;;;4996653;28;20034;-56
2022/12/18 05:01:22;;;;;;;56.65;25.38;;;;;;;;;;4994983;28;20034;-56
2022/12/18 05:03:47;;;;;;;53.78;22.45;;;;;;;;;;4982536;28;20033;-55
2022/12/18 05:06:13;;;;;;;70.00;27.73;;;;;;;;;;4997605;28;20018;-54
2022/12/18 05:08:38;;;;;;;51.08;23.25;;;;;;;;;;4998004;28;20087;-52
2022/12/18 05:11:05;;;;;;;52.42;24.38;;;;;;;;;;4994688;28;20528;-55
2022/12/18 05:13:31;;;;;;;59.22;22.00;;;;;;;;;;4997788;28;20667;-54
2022/12/18 05:15:56;;;;;;;55.25;23.67;;;;;;;;;;4984138;28;20507;-54
2022/12/18 05:18:22;;;;;;;42.53;23.05;;;;;;;;;;4980317;28;20452;-54
2022/12/18 05:20:48;;;;;;;50.83;23.75;;;;;;;;;;4996884;28;20104;-57
2022/12/18 05:23:14;;;;;;;42.70;20.33;;;;;;;;;;4978236;28;20049;-55
2022/12/18 05:25:39;;;;;;;47.92;22.33;;;;;;;;;;4996701;28;20030;-56
2022/12/18 05:28:04;;;;;;;46.95;20.55;;;;;;;;;;4997199;28;20030;-55
2022/12/18 05:30:29;;;;;;;40.67;21.58;;;;;;;;;;4981840;28;20018;-54
2022/12/18 05:32:55;;;;;;;51.92;20.75;;;;;;;;;;4995681;28;20382;-53
2022/12/18 05:35:21;;;;;;;55.65;22.95;;;;;;;;;;4994634;28;20041;-52
2022/12/18 05:37:46;;;;;;;67.03;26.07;;;;;;;;;;4996317;28;20123;-53
2022/12/18 05:40:12;;;;;;;52.85;22.08;;;;;;;;;;4971724;28;20467;-54
2022/12/18 05:42:37;;;;;;;41.13;17.83;;;;;;;;;;4997715;28;20081;-53
2022/12/18 05:45:03;;;;;;;50.00;21.52;;;;;;;;;;4996328;28;20104;-55
2022/12/18 05:47:28;;;;;;;45.15;21.80;;;;;;;;;;4995360;28;20127;-55
2022/12/18 05:49:54;;;;;;;61.53;23.95;;;;;;;;;;4978646;28;20373;-55
2022/12/18 05:52:19;;;;;;;69.35;27.60;;;;;;;;;;4986377;28;20169;-53
2022/12/18 05:54:45;;;;;;;45.40;20.60;;;;;;;;;;4977286;28;20765;-54
2022/12/18 05:57:10;;;;;;;43.33;20.17;;;;;;;;;;4996365;28;20058;-56
2022/12/18 05:59:35;;;;;;;44.10;19.95;;;;;;;;;;4999170;28;20520;-56
2022/12/18 06:02:00;;;;;;;40.22;19.27;;;;;;;;;;4985678;28;20152;-57
2022/12/18 06:04:27;;;;;;;48.10;19.33;;;;;;;;;;4979436;28;20068;-56
2022/12/18 06:06:55;;;;;;;53.92;21.95;;;;;;;;;;4996398;28;20040;-58
2022/12/18 06:09:21;;;;;;;45.17;19.63;;;;;;;;;;4964238;28;20038;-56
2022/12/18 06:11:46;;;;;;;59.00;21.02;;;;;;;;;;4994356;28;20505;-56
2022/12/18 06:14:11;;;;;;;60.20;22.05;;;;;;;;;;4995270;28;20500;-57
2022/12/18 06:16:37;;;;;;;46.40;19.05;;;;;;;;;;4998938;28;20030;-56
2022/12/18 06:19:03;;;;;;;51.00;19.65;;;;;;;;;;4998634;28;20048;-56
2022/12/18 06:21:29;;;;;;;51.50;18.37;;;;;;;;;;4977143;28;20058;-56
2022/12/18 06:23:54;;;;;;;46.80;18.38;;;;;;;;;;4963442;28;20073;-55
2022/12/18 06:26:20;;;;;;;43.17;18.05;;;;;;;;;;4995338;28;20062;-54
2022/12/18 06:28:45;;;;;;;40.45;20.50;;;;;;;;;;4992336;28;20488;-57
2022/12/18 06:31:10;;;;;;;44.80;19.00;;;;;;;;;;4994916;28;20100;-52
2022/12/18 06:33:36;;;;;;;50.22;17.70;;;;;;;;;;4994302;28;20237;-57
2022/12/18 06:36:03;;;;;;;55.65;19.42;;;;;;;;;;4984002;28;20037;-56
2022/12/18 06:38:28;;;;;;;45.15;20.15;;;;;;;;;;4993790;28;20061;-55
2022/12/18 06:40:54;;;;;;;52.35;20.80;;;;;;;;;;4983094;28;20085;-56
2022/12/18 06:43:19;;;;;;;42.45;20.08;;;;;;;;;;4994382;28;20174;-55
2022/12/18 06:45:46;;;;;;;45.50;16.77;;;;;;;;;;4993756;28;20399;-56
2022/12/18 06:48:11;;;;;;;43.72;18.13;;;;;;;;;;4994007;28;20029;-59
2022/12/18 06:50:36;;;;;;;44.83;18.88;;;;;;;;;;4984701;28;20101;-56
2022/12/18 06:53:01;;;;;;;57.25;20.52;;;;;;;;;;4991761;28;20033;-59
2022/12/18 06:55:27;;;;;;;45.90;19.45;;;;;;;;;;4984995;28;20717;-57
2022/12/18 06:57:52;;;;;;;56.72;22.20;;;;;;;;;;4978466;28;20030;-57
2022/12/18 07:00:18;;;;;;;48.85;20.35;;;;;;;;;;4985432;28;20041;-58
2022/12/18 07:02:43;;;;;;;53.55;18.52;;;;;;;;;;4980353;28;20030;-56
2022/12/18 07:05:08;;;;;;;47.83;20.30;;;;;;;;;;4995596;28;20038;-54
2022/12/18 07:07:34;;;;;;;38.28;16.90;;;;;;;;;;4997385;28;20034;-57
2022/12/18 07:10:00;;;;;;;47.72;18.90;;;;;;;;;;4997702;28;20096;-57
2022/12/18 07:12:26;;;;;;;39.40;18.30;;;;;;;;;;4978288;28;20044;-56
2022/12/18 07:14:51;;;;;;;55.45;18.67;;;;;;;;;;4977885;28;20030;-56
2022/12/18 07:17:17;;;;;;;50.83;19.17;;;;;;;;;;4992718;28;20116;-56
2022/12/18 07:19:42;;;;;;;46.33;19.75;;;;;;;;;;4993681;28;20041;-56
2022/12/18 07:22:07;;;;;;;55.80;19.67;;;;;;;;;;4996180;28;20500;-57
2022/12/18 07:24:34;;;;;;;50.38;18.60;;;;;;;;;;4990921;28;20710;-57
2022/12/18 07:26:59;;;;;;;53.20;21.35;;;;;;;;;;4997392;28;20053;-56
2022/12/18 07:29:25;;;;;;;46.17;19.25;;;;;;;;;;4997423;28;20385;-55
2022/12/18 07:31:50;;;;;;;40.85;17.70;;;;;;;;;;4997785;28;20472;-58
2022/12/18 07:34:16;;;;;;;64.95;22.70;;;;;;;;;;4996878;28;20038;-56
2022/12/18 07:36:41;;;;;;;112.10;33.40;;;;;;;;;;4997102;28;20033;-56
2022/12/18 07:39:07;;;;;;;182.77;53.63;;;;;;;;;;4997356;28;20033;-53
2022/12/18 07:41:32;;;;;;;231.18;55.67;;;;;;;;;;4967034;28;20026;-58
2022/12/18 07:44:08;;;;;;;185.80;51.42;;;;;;;;;;4987900;28;20045;-57
2022/12/18 07:46:34;;;;;;;178.77;45.88;;;;;;;;;;4983438;28;20091;-55
2022/12/18 07:48:59;;;;;;;130.57;43.67;;;;;;;;;;4997428;28;20038;-55
2022/12/18 07:51:24;;;;;;;101.32;39.20;;;;;;;;;;4989197;28;20026;-57
2022/12/18 07:53:50;;;;;;;74.85;27.80;;;;;;;;;;4997316;28;20732;-57
2022/12/18 07:56:15;;;;;;;68.85;25.75;;;;;;;;;;5001994;28;20026;-57
2022/12/18 07:58:40;;;;;;;52.25;22.17;;;;;;;;;;4998796;28;20030;-55
2022/12/18 08:01:06;;;;;;;60.10;23.20;;;;;;;;;;4983156;28;20030;-56
2022/12/18 08:03:32;;;;;;;58.15;22.77;;;;;;;;;;4999133;28;20078;-56
2022/12/18 08:05:58;;;;;;;65.82;27.45;;;;;;;;;;4994018;28;20054;-57
2022/12/18 08:08:24;;;;;;;60.25;26.05;;;;;;;;;;4981767;28;20049;-56
2022/12/18 08:10:49;;;;;;;52.78;23.23;;;;;;;;;;4981404;28;20030;-57
2022/12/18 08:13:14;;;;;;;54.22;19.92;;;;;;;;;;4993799;28;20042;-55
2022/12/18 08:15:40;;;;;;;67.93;23.23;;;;;;;;;;5000537;28;20065;-56
2022/12/18 08:18:05;;;;;;;73.22;25.52;;;;;;;;;;4995994;28;20038;-57
2022/12/18 08:20:30;;;;;;;59.45;21.52;;;;;;;;;;4996873;28;20022;-56
2022/12/18 08:22:57;;;;;;;65.03;21.73;;;;;;;;;;4996585;28;20037;-56
2022/12/18 08:25:23;;;;;;;62.35;22.73;;;;;;;;;;4997160;28;20038;-56
2022/12/18 08:27:48;;;;;;;59.22;23.23;;;;;;;;;;4988759;28;20110;-57
2022/12/18 08:30:13;;;;;;;65.13;21.33;;;;;;;;;;4998905;28;20120;-58
2022/12/18 08:32:39;;;;;;;73.85;24.40;;;;;;;;;;4998469;28;20034;-57
2022/12/18 08:35:04;;;;;;;63.30;22.88;;;;;;;;;;4984460;28;20046;-57
2022/12/18 08:37:30;;;;;;;88.25;26.58;;;;;;;;;;4994703;28;20046;-58
2022/12/18 08:39:55;;;;;;;82.20;25.50;;;;;;;;;;4982470;28;20618;-59
2022/12/18 08:45:05;;;;;;;72.97;25.40;;;;;;;;;;4998924;28;20036;-59
2022/12/18 08:47:30;;;;;;;69.15;23.80;;;;;;;;;;4996736;28;20030;-56
2022/12/18 08:49:55;;;;;;;93.75;39.53;;;;;;;;;;4980326;28;20034;-60
2022/12/18 08:52:20;;;;;;;94.15;37.45;;;;;;;;;;4971214;28;20033;-59
2022/12/18 08:54:46;;;;;;;88.10;30.73;;;;;;;;;;4997441;28;20029;-60
2022/12/18 08:57:11;;;;;;;79.15;29.58;;;;;;;;;;4981376;28;20044;-58
2022/12/18 08:59:37;;;;;;;85.50;31.15;;;;;;;;;;4996398;28;20102;-58
2022/12/18 09:02:02;;;;;;;85.90;30.42;;;;;;;;;;4968803;28;20050;-58
2022/12/18 09:04:27;;;;;;;85.30;30.25;;;;;;;;;;4987713;28;20053;-58
2022/12/18 09:06:55;;;;;;;83.75;28.25;;;;;;;;;;4979637;28;20026;-58
2022/12/18 09:09:21;;;;;;;86.28;28.33;;;;;;;;;;4980740;28;20124;-59
2022/12/18 09:11:46;;;;;;;78.60;26.33;;;;;;;;;;4985659;28;20315;-60
2022/12/18 09:14:11;;;;;;;76.88;26.92;;;;;;;;;;4996251;28;20038;-59
2022/12/18 09:16:37;;;;;;;72.82;26.77;;;;;;;;;;4994201;28;20046;-60
2022/12/18 09:19:03;;;;;;;70.72;25.05;;;;;;;;;;4995422;28;20033;-58
2022/12/18 09:21:30;;;;;;;80.00;26.63;;;;;;;;;;4977220;28;20330;-60
2022/12/18 09:23:56;;;;;;;76.70;26.77;;;;;;;;;;4990432;28;20042;-59
2022/12/18 09:26:22;;;;;;;85.88;26.70;;;;;;;;;;4995844;28;20034;-57
2022/12/18 09:28:47;;;;;;;82.25;27.85;;;;;;;;;;4992813;28;20030;-57
2022/12/18 09:31:16;;;;;;;70.38;25.55;;;;;;;;;;4996799;28;20487;-58
2022/12/18 09:33:41;;;;;;;83.82;26.88;;;;;;;;;;4995553;28;20072;-57
2022/12/18 09:36:08;;;;;;;86.25;30.27;;;;;;;;;;4986676;28;20050;-58
2022/12/18 09:38:33;;;;;;;83.18;27.52;;;;;;;;;;4994398;28;20026;-58
2022/12/18 09:41:15;;;;;;;68.22;23.08;;;;;;;;;;4994188;28;20433;-55
2022/12/18 09:43:42;;;;;;;67.00;23.88;;;;;;;;;;4979995;28;20848;-59
2022/12/18 09:46:08;;;;;;;;;;;;;;;;;;4964819;28;20030;-58
2022/12/18 09:48:36;;;;;;;82.80;25.03;;;;;;;;;;4981689;28;19936;-58
2022/12/18 09:51:25;;;;;;;71.53;24.58;;;;;;;;;;4984335;28;20322;-58
2022/12/18 09:53:52;;;;;;;86.03;28.80;;;;;;;;;;4969346;28;20045;-58
2022/12/18 09:56:19;;;;;;;89.18;33.97;;;;;;;;;;4994410;28;20128;-57
2022/12/18 09:58:53;;;;;;;77.43;25.38;;;;;;;;;;4993737;28;20038;-59
2022/12/18 10:01:20;;;;;;;69.38;23.17;;;;;;;;;;4995334;28;20037;-58
2022/12/18 10:03:45;;;;;;;89.53;29.05;;;;;;;;;;4995782;28;20025;-58
2022/12/18 10:06:20;;;;;;;72.30;22.58;;;;;;;;;;4980196;28;20038;-57
2022/12/18 10:08:58;;;;;;;74.50;24.13;;;;;;;;;;4976389;28;20030;-59
2022/12/18 10:11:26;;;;;;;66.03;22.05;;;;;;;;;;4994960;28;20037;-59
2022/12/18 10:14:00;;;;;;;78.22;23.42;;;;;;;;;;4982826;28;20093;-59
2022/12/18 10:16:31;;;;;;;75.93;25.70;;;;;;;;;;4978171;28;20477;-59
2022/12/18 10:18:59;;;;;;;60.90;21.83;;;;;;;;;;4994550;28;20030;-60
2022/12/18 10:21:30;;;;;;;71.30;21.10;;;;;;;;;;4995365;28;20056;-59
2022/12/18 10:23:56;;;;;;;65.55;22.08;;;;;;;;;;4992716;28;20038;-58
2022/12/18 10:26:22;;;;;;;68.18;21.30;;;;;;;;;;4993397;28;20030;-59
2022/12/18 10:28:47;;;;;;;62.47;21.30;;;;;;;;;;4976617;28;20045;-59
2022/12/18 10:31:16;;;;;;;76.75;23.60;;;;;;;;;;4993327;28;20034;-59
2022/12/18 10:33:42;;;;;;;65.65;21.25;;;;;;;;;;4991575;28;20038;-59
2022/12/18 10:36:07;;;;;;;66.85;22.45;;;;;;;;;;4974706;28;20049;-59
2022/12/18 10:38:33;;;;;;;67.90;22.65;;;;;;;;;;4994967;28;20022;-59
2022/12/18 10:40:58;;;;;;;81.50;25.95;;;;;;;;;;4992462;28;20050;-58
2022/12/18 10:43:26;;;;;;;73.05;22.67;;;;;;;;;;4981970;28;20033;-59
2022/12/18 10:46:11;;;;;;;67.70;23.17;;;;;;;;;;4992327;28;20112;-59
2022/12/18 10:48:47;;;;;;;68.20;22.75;;;;;;;;;;4991620;28;20749;-60
2022/12/18 10:51:19;;;;;;;69.28;23.92;;;;;;;;;;4992489;28;20476;-59
2022/12/18 10:53:51;;;;;;;66.28;22.15;;;;;;;;;;4989010;28;20033;-59
2022/12/18 10:56:19;;;;;;;58.58;20.20;;;;;;;;;;4975102;28;20747;-59
2022/12/18 10:58:54;;;;;;;66.15;22.10;;;;;;;;;;4993167;28;20026;-59
2022/12/18 11:01:20;;;;;;;60.72;21.98;;;;;;;;;;4989080;28;20116;-59
2022/12/18 11:03:45;;;;;;;58.47;22.15;;;;;;;;;;4982513;28;20540;-59
2022/12/18 11:06:11;;;;;;;65.80;22.50;;;;;;;;;;4977068;28;20480;-59
2022/12/18 11:08:36;;;;;;;61.97;21.90;;;;;;;;;;4991170;28;20057;-58
2022/12/18 11:11:02;;;;;;;61.05;23.13;;;;;;;;;;4993988;28;20424;-58
2022/12/18 11:13:29;;;;;;;61.63;21.13;;;;;;;;;;4989015;28;20125;-59
2022/12/18 11:15:54;;;;;;;67.13;23.45;;;;;;;;;;4980084;28;20121;-59
2022/12/18 11:18:20;;;;;;;59.28;22.08;;;;;;;;;;4983839;28;20475;-59
2022/12/18 11:20:59;;;;;;;63.97;22.65;;;;;;;;;;4986398;28;20105;-60
2022/12/18 11:23:25;;;;;;;62.70;22.20;;;;;;;;;;4971258;28;20033;-59
2022/12/18 11:25:58;;;;;;;66.38;21.30;;;;;;;;;;4989379;28;20026;-60
2022/12/18 11:28:26;;;;;;;68.22;24.60;;;;;;;;;;4988248;28;20030;-59
2022/12/18 11:31:10;;;;;;;58.55;22.55;;;;;;;;;;4985467;28;20739;-60
2022/12/18 11:33:37;;;;;;;66.15;22.95;;;;;;;;;;4991665;28;20053;-59
2022/12/18 11:36:03;;;;;;;66.10;23.55;;;;;;;;;;4986483;28;20125;-59
2022/12/18 11:38:39;;;;;;;54.65;21.05;;;;;;;;;;4990485;28;20141;-59
2022/12/18 11:42:08;;;;;;;54.97;23.90;;;;;;;;;;4991886;28;20035;-59
2022/12/18 11:44:26;;;;;;;53.78;22.05;;;;;;;;;;4983883;28;20030;-60
2022/12/18 11:46:55;;;;;;;54.30;23.02;;;;;;;;;;4969109;28;20041;-59
2022/12/18 11:49:24;;;;;;;56.17;24.08;;;;;;;;;;4991771;28;20434;-60
2022/12/18 11:51:49;;;;;;;61.00;24.42;;;;;;;;;;4987027;28;20452;-60
2022/12/18 11:54:15;;;;;;;57.90;25.02;;;;;;;;;;4989756;28;20046;-58
2022/12/18 11:56:48;;;;;;;55.10;23.70;;;;;;;;;;4968444;28;20512;-61
2022/12/18 11:59:16;;;;;;;51.63;23.13;;;;;;;;;;4982880;28;20041;-58
2022/12/18 12:01:52;;;;;;;57.05;23.98;;;;;;;;;;4988318;28;20035;-59
2022/12/18 12:04:50;;;;;;;57.53;22.93;;;;;;;;;;4985877;28;20034;-58
2022/12/18 12:07:24;;;;;;;50.35;21.25;;;;;;;;;;4959722;28;20084;-59
2022/12/18 12:09:56;;;;;;;56.90;23.25;;;;;;;;;;4994120;28;20030;-59
2022/12/18 12:12:21;;;;;;;52.70;22.92;;;;;;;;;;4986657;28;20034;-58
2022/12/18 12:14:46;;;;;;;52.33;22.05;;;;;;;;;;4991893;28;20464;-59
2022/12/18 12:17:12;;;;;;;53.35;23.13;;;;;;;;;;4988675;28;20744;-59
2022/12/18 12:19:40;;;;;;;52.67;24.92;;;;;;;;;;4983295;28;20484;-61
2022/12/18 12:22:23;;;;;;;53.60;22.42;;;;;;;;;;4995228;28;20030;-60
2022/12/18 12:25:12;;;;;;;52.95;22.60;;;;;;;;;;4988429;28;20098;-59
2022/12/18 12:27:44;;;;;;;56.53;24.42;;;;;;;;;;4974785;28;20408;-59
2022/12/18 12:30:15;;;;;;;48.67;22.02;;;;;;;;;;4995640;28;20026;-59
2022/12/18 12:33:01;;;;;;;53.67;22.73;;;;;;;;;;4972313;28;20074;-60
2022/12/18 12:35:42;;;;;;;51.73;23.30;;;;;;;;;;4988106;28;20038;-60
2022/12/18 12:38:13;;;;;;;48.95;21.98;;;;;;;;;;4978270;28;20399;-59
2022/12/18 12:40:45;;;;;;;47.97;21.13;;;;;;;;;;4989078;28;20026;-59
2022/12/18 12:43:29;;;;;;;46.97;20.90;;;;;;;;;;4986389;28;20173;-60
2022/12/18 12:46:03;;;;;;;49.33;22.13;;;;;;;;;;4996312;28;20022;-59
2022/12/18 12:48:40;;;;;;;47.15;20.88;;;;;;;;;;4990062;28;20062;-60
2022/12/18 12:51:05;;;;;;;;;;;;;;;;;;4993964;28;20698;-61
2022/12/18 12:53:35;;;;;;;47.23;21.60;;;;;;;;;;4987921;28;19991;-60
2022/12/18 12:56:01;;;;;;;50.00;22.20;;;;;;;;;;4987106;28;20371;-60
2022/12/18 12:58:32;;;;;;;51.33;22.90;;;;;;;;;;4994343;28;20019;-59
2022/12/18 13:01:12;;;;;;;52.70;22.80;;;;;;;;;;4971729;28;20122;-60
2022/12/18 13:03:38;;;;;;;50.75;22.42;;;;;;;;;;4983688;28;20756;-60
2022/12/18 13:06:09;;;;;;;47.30;22.83;;;;;;;;;;4988038;28;20730;-59
2022/12/18 13:08:51;;;;;;;47.53;21.65;;;;;;;;;;4989314;28;20401;-59
2022/12/18 13:14:35;;;;;;;51.45;22.77;;;;;;;;;;4993622;28;20034;-59
2022/12/18 13:17:19;;;;;;;48.28;21.58;;;;;;;;;;4977091;28;20086;-59
2022/12/18 13:19:44;;;;;;;48.63;21.83;;;;;;;;;;4988223;28;20142;-59
2022/12/18 13:22:20;;;;;;;55.08;22.35;;;;;;;;;;4988480;28;20430;-59
2022/12/18 13:24:46;;;;;;;52.57;22.37;;;;;;;;;;4988473;28;20058;-59
2022/12/18 13:27:30;;;;;;;47.10;22.05;;;;;;;;;;4990728;28;20347;-59
2022/12/18 13:29:55;;;;;;;49.13;21.50;;;;;;;;;;4991145;28;20061;-59
2022/12/18 13:32:22;;;;;;;49.88;20.33;;;;;;;;;;4987952;28;20026;-59
2022/12/18 13:34:47;;;;;;;50.58;22.17;;;;;;;;;;4994738;28;20081;-59
2022/12/18 13:37:31;;;;;;;45.35;21.02;;;;;;;;;;4987594;28;20099;-59
2022/12/18 13:39:56;;;;;;;46.17;20.13;;;;;;;;;;4972148;28;20042;-58
2022/12/18 13:45:36;;;;;;;51.40;21.27;;;;;;;;;;4985938;28;20030;-58
2022/12/18 13:48:02;;;;;;;48.53;19.92;;;;;;;;;;4991580;28;20480;-58
2022/12/18 13:50:27;;;;;;;53.28;21.27;;;;;;;;;;4992639;28;20034;-58
2022/12/18 13:52:53;;;;;;;46.58;20.42;;;;;;;;;;4983703;28;20034;-58
2022/12/18 13:55:19;;;;;;;48.65;19.92;;;;;;;;;;4961912;28;20049;-59
2022/12/18 13:57:45;;;;;;;47.65;20.80;;;;;;;;;;4974204;28;20050;-59
2022/12/18 14:00:28;;;;;;;49.30;20.47;;;;;;;;;;4988146;28;20140;-59
2022/12/18 14:02:54;;;;;;;50.35;20.92;;;;;;;;;;4990993;28;20120;-59
2022/12/18 14:05:27;;;;;;;48.72;20.50;;;;;;;;;;4987809;28;20077;-59
2022/12/18 14:07:53;;;;;;;48.58;20.25;;;;;;;;;;4983368;28;20096;-59
2022/12/18 14:10:19;;;;;;;49.22;20.05;;;;;;;;;;4987313;28;20022;-58
2022/12/18 14:12:58;;;;;;;57.33;22.13;;;;;;;;;;4988467;28;20640;-59
2022/12/18 14:15:27;;;;;;;42.55;19.05;;;;;;;;;;4974675;28;20477;-59
2022/12/18 14:17:57;;;;;;;51.45;21.63;;;;;;;;;;4986571;28;20587;-57
2022/12/18 14:20:23;;;;;;;50.55;20.75;;;;;;;;;;4989178;28;20030;-58
2022/12/18 14:22:58;;;;;;;48.78;21.30;;;;;;;;;;4992820;28;20034;-59
2022/12/18 14:25:25;;;;;;;52.03;22.15;;;;;;;;;;4989228;28;20400;-58
2022/12/18 14:27:53;;;;;;;55.22;21.48;;;;;;;;;;4978474;28;20021;-58
2022/12/18 14:30:28;;;;;;;57.22;23.25;;;;;;;;;;4978748;28;20466;-57
2022/12/18 14:33:02;;;;;;;54.40;22.75;;;;;;;;;;4987060;28;20026;-59
2022/12/18 14:35:28;;;;;;;49.67;20.95;;;;;;;;;;4974026;28;20038;-59